Time;durP1;ratioP1;P1;durP2;ratioP2;P2;SDS_P1;SDS_P2;PMS_P1;PMS_P2;Temp;Humidity;BMP_temperature;BMP_pressure;BME280_temperature;BME280_humidity;BME280_pressure;Samples;Min_cycle;Max_cycle;Signal;HPM_P1;HPM_P2
2023/03/04 06:20:44;;;;;;;62.30;28.70;;;;;;;6.01;100.00;100648.19;5634263;23;20053;-84
2023/03/04 08:09:05;;;;;;;;;;;;;;;12.56;97.44;100712.16;5300097;23;20628;-86
2023/03/04 08:11:32;;;;;;;43.05;21.98;;;;;;;12.86;97.11;100718.56;4991328;28;19956;-87
2023/03/04 08:14:02;;;;;;;37.72;21.45;;;;;;;12.84;95.57;100705.44;4986524;28;20042;-84
2023/03/04 08:16:27;;;;;;;35.00;21.83;;;;;;;12.87;94.92;100710.41;4996914;28;20033;-84
2023/03/04 08:18:56;;;;;;;35.75;22.13;;;;;;;12.98;90.62;100703.06;4994273;28;20034;-88
2023/03/04 08:21:24;;;;;;;41.58;23.08;;;;;;;13.37;89.21;100696.72;4996757;28;20034;-87
2023/03/04 08:23:53;;;;;;;43.20;22.73;;;;;;;13.56;85.80;100699.91;4979320;28;20164;-85
2023/03/04 08:26:32;;;;;;;43.30;21.08;;;;;;;13.61;86.01;100695.75;4978978;28;20466;-85
2023/03/04 08:29:02;;;;;;;38.30;22.33;;;;;;;13.92;85.47;100701.81;4995054;28;20023;-90
2023/03/04 08:31:28;;;;;;;38.42;20.90;;;;;;;14.77;80.36;100698.84;4998199;28;20042;-86
2023/03/04 08:33:54;;;;;;;35.60;20.38;;;;;;;15.17;78.81;100703.66;4997212;28;20377;-86
2023/03/04 08:36:19;;;;;;;36.28;21.17;;;;;;;14.90;84.56;100702.50;4975839;28;20042;-87
2023/03/04 08:38:45;;;;;;;36.47;19.90;;;;;;;15.33;79.96;100702.63;4984979;28;20501;-85
2023/03/04 08:41:14;;;;;;;36.30;19.65;;;;;;;15.18;78.31;100707.16;4996458;28;20022;-85
2023/03/04 08:43:40;;;;;;;39.30;23.90;;;;;;;15.21;79.23;100701.47;4992068;28;20069;-87
2023/03/04 08:46:06;;;;;;;38.65;21.95;;;;;;;15.19;79.25;100704.28;4993791;28;20033;-88
2023/03/04 08:48:32;;;;;;;34.50;20.52;;;;;;;15.78;73.85;100707.63;4996131;28;20466;-87
2023/03/04 08:50:58;;;;;;;37.33;22.83;;;;;;;15.59;77.57;100702.94;4996112;28;20026;-87
2023/03/04 08:53:25;;;;;;;45.50;24.35;;;;;;;15.86;75.39;100699.50;4995932;28;20034;-89
2023/03/04 08:55:52;;;;;;;43.67;24.92;;;;;;;15.61;75.90;100698.22;4996646;28;20034;-88
2023/03/04 08:58:20;;;;;;;39.05;23.13;;;;;;;14.85;77.41;100693.38;4995098;28;20034;-87
2023/03/04 09:00:48;;;;;;;40.40;23.10;;;;;;;14.81;77.37;100697.47;4996473;28;20036;-87
2023/03/04 09:03:15;;;;;;;44.75;24.38;;;;;;;15.67;74.01;100692.13;4994619;28;20132;-85
2023/03/04 09:05:40;;;;;;;42.22;23.33;;;;;;;15.90;73.58;100692.75;4995696;28;20030;-90
2023/03/04 09:08:06;;;;;;;45.63;24.50;;;;;;;16.40;73.28;100697.06;4993137;28;20381;-85
2023/03/04 09:10:32;;;;;;;46.30;24.50;;;;;;;16.42;73.63;100699.50;4983184;28;20474;-87
2023/03/04 09:12:58;;;;;;;44.88;26.40;;;;;;;16.26;73.35;100694.47;4995049;28;20113;-87
2023/03/04 09:15:24;;;;;;;45.42;27.38;;;;;;;16.86;69.71;100702.72;4995156;28;20038;-87
2023/03/04 09:17:49;;;;;;;44.42;25.08;;;;;;;16.08;72.94;100691.44;4985095;28;20054;-88
2023/03/04 09:20:15;;;;;;;50.67;26.55;;;;;;;16.74;69.88;100692.72;4995362;28;20483;-88
2023/03/04 09:22:41;;;;;;;46.90;25.95;;;;;;;15.91;76.27;100691.72;4995162;28;20371;-88
2023/03/04 09:25:07;;;;;;;47.63;26.77;;;;;;;16.17;72.26;100684.94;4965359;28;20034;-86
2023/03/04 09:27:33;;;;;;;46.80;27.52;;;;;;;16.77;70.25;100687.00;4994986;28;20377;-87
2023/03/04 09:29:59;;;;;;;49.08;27.73;;;;;;;16.17;72.77;100690.28;4995140;28;20034;-88
2023/03/04 09:32:24;;;;;;;47.08;28.15;;;;;;;15.85;76.51;100683.63;4994768;28;20026;-89
2023/03/04 09:34:49;;;;;;;48.55;26.58;;;;;;;16.52;76.14;100689.28;4975974;28;20042;-90
2023/03/04 09:37:15;;;;;;;43.13;26.50;;;;;;;16.99;70.11;100697.41;4995650;28;20038;-89
2023/03/04 09:39:41;;;;;;;50.75;26.00;;;;;;;16.42;69.69;100684.28;4995539;28;20027;-85
2023/03/04 09:42:16;;;;;;;44.53;25.65;;;;;;;17.24;65.95;100684.31;4995827;28;20030;-89
2023/03/04 09:44:45;;;;;;;46.08;24.25;;;;;;;17.22;64.91;100691.72;4995318;28;20038;-86
2023/03/04 09:47:14;;;;;;;45.22;24.42;;;;;;;16.53;69.29;100690.97;4994988;28;20095;-88
2023/03/04 09:49:44;;;;;;;46.08;25.55;;;;;;;15.87;72.86;100685.13;4976399;28;20042;-89
2023/03/04 09:52:31;;;;;;;48.08;22.50;;;;;;;15.75;71.74;100681.28;4995144;28;20034;-86
2023/03/04 09:55:19;;;;;;;35.63;21.20;;;;;;;15.78;73.24;100678.22;4995825;28;20502;-91
2023/03/04 09:58:14;;;;;;;32.55;20.08;;;;;;;15.55;68.55;100685.63;4978080;28;20042;-86
2023/03/04 10:00:50;;;;;;;36.05;20.33;;;;;;;14.85;74.04;100680.88;4997628;28;20073;-91
2023/03/04 10:03:20;;;;;;;40.03;21.83;;;;;;;14.97;74.82;100674.06;4995696;28;20030;-87
2023/03/04 10:06:08;;;;;;;36.80;19.50;;;;;;;16.24;65.29;100685.81;4995678;28;20038;-86
2023/03/04 10:08:52;;;;;;;32.72;16.38;;;;;;;15.85;63.37;100683.63;4995737;28;20482;-88
2023/03/04 10:11:41;;;;;;;29.33;16.88;;;;;;;16.66;57.38;100680.38;4995042;28;20085;-87
2023/03/04 10:14:21;;;;;;;42.72;18.38;;;;;;;18.14;52.60;100685.69;4995424;28;20482;-88
2023/03/04 10:16:58;;;;;;;29.92;17.15;;;;;;;18.48;49.92;100680.09;4978247;28;20093;-86
2023/03/04 10:19:29;;;;;;;27.98;14.23;;;;;;;18.61;46.52;100672.03;4995467;28;20042;-89
2023/03/04 10:21:54;;;;;;;27.27;13.27;;;;;;;18.00;47.62;100674.97;4995640;28;20122;-87
2023/03/04 10:24:24;;;;;;;29.17;14.18;;;;;;;18.80;46.27;100675.69;4979421;28;20584;-87
2023/03/04 10:27:03;;;;;;;26.25;13.38;;;;;;;18.50;45.18;100672.69;4998545;28;20037;-86
2023/03/04 10:29:31;;;;;;;25.20;14.75;;;;;;;18.42;45.64;100678.25;4996229;28;20035;-85
2023/03/04 10:31:57;;;;;;;25.88;13.30;;;;;;;18.65;45.95;100667.91;4996173;28;20126;-83
2023/03/04 10:34:25;;;;;;;25.02;15.10;;;;;;;18.76;45.43;100666.44;4997065;28;20038;-87
2023/03/04 10:37:04;;;;;;;29.83;15.82;;;;;;;19.00;45.08;100655.78;4998662;28;20034;-87
2023/03/04 10:39:32;;;;;;;30.15;14.52;;;;;;;19.12;43.05;100663.19;4999570;28;20038;-86
2023/03/04 10:42:04;;;;;;;29.65;14.57;;;;;;;18.43;44.89;100653.03;4984376;28;20123;-88
2023/03/04 10:44:33;;;;;;;26.33;15.25;;;;;;;19.18;44.48;100651.56;4995475;28;20044;-84
2023/03/04 10:47:00;;;;;;;30.20;14.25;;;;;;;19.31;46.24;100651.50;4964691;28;20399;-88
2023/03/04 10:49:28;;;;;;;34.50;14.88;;;;;;;19.59;43.63;100647.41;4994704;28;20061;-90
2023/03/04 10:52:02;;;;;;;27.00;15.00;;;;;;;20.27;41.87;100652.88;4992657;28;20129;-87
2023/03/04 10:54:40;;;;;;;32.30;15.73;;;;;;;19.67;44.03;100627.50;4988663;28;20042;-88
2023/03/04 10:57:22;;;;;;;31.08;15.88;;;;;;;19.56;43.05;100636.25;4993430;28;20065;-91
2023/03/04 10:59:55;;;;;;;29.42;17.20;;;;;;;20.46;43.04;100634.84;4992858;28;20128;-90
2023/03/04 11:02:26;;;;;;;29.58;17.02;;;;;;;20.55;41.64;100638.88;4991733;28;20039;-92
2023/03/04 11:05:16;;;;;;;33.67;16.40;;;;;;;18.80;44.91;100630.03;4995178;28;20042;-91
2023/03/04 11:07:57;;;;;;;34.70;16.70;;;;;;;17.81;47.30;100622.19;4979997;28;20054;-87
2023/03/04 11:10:34;;;;;;;29.60;16.08;;;;;;;17.13;51.39;100615.28;4993671;28;20413;-84
2023/03/04 11:13:20;;;;;;;34.53;17.88;;;;;;;16.10;57.68;100614.53;4990557;28;20037;-86
2023/03/04 11:15:50;;;;;;;35.63;20.38;;;;;;;15.88;58.47;100603.91;4993952;28;20081;-86
2023/03/04 11:18:19;;;;;;;32.75;18.42;;;;;;;15.60;58.84;100599.56;4990940;28;20637;-87
2023/03/04 11:20:48;;;;;;;24.60;15.30;;;;;;;15.27;57.82;100596.56;4990517;28;20023;-86
2023/03/04 11:23:20;;;;;;;26.40;16.20;;;;;;;14.86;60.15;100599.81;4992109;28;20038;-86
2023/03/04 11:26:00;;;;;;;34.03;17.60;;;;;;;14.61;60.11;100595.84;4981316;28;20030;-85
2023/03/04 11:28:37;;;;;;;27.48;16.23;;;;;;;14.63;61.11;100585.78;4991647;28;20128;-85
2023/03/04 11:31:11;;;;;;;32.55;17.48;;;;;;;14.72;61.91;100581.16;4991013;28;20041;-85
2023/03/04 11:34:02;;;;;;;31.52;17.65;;;;;;;14.51;63.47;100583.78;4990703;28;20035;-87
2023/03/04 11:36:34;;;;;;;28.65;14.60;;;;;;;14.90;57.44;100569.09;4989682;28;20418;-88
2023/03/04 11:39:04;;;;;;;26.48;13.73;;;;;;;14.46;60.14;100571.00;4994163;28;20039;-88
2023/03/04 11:41:37;;;;;;;25.45;15.18;;;;;;;14.55;60.24;100569.09;4994591;28;20401;-87
2023/03/04 11:44:05;;;;;;;;;;;;;;;13.92;63.64;100571.25;4997007;28;20458;-86
2023/03/04 11:47:04;;;;;;;31.83;15.38;;;;;;;14.63;61.61;100561.78;4975085;28;19925;-85
2023/03/04 11:49:33;;;;;;;26.80;15.05;;;;;;;14.73;58.96;100556.97;4996148;28;20042;-85
2023/03/04 11:52:32;;;;;;;24.80;14.10;;;;;;;14.87;58.16;100547.28;5002635;28;20405;-85
2023/03/04 11:55:22;;;;;;;25.10;13.40;;;;;;;15.61;56.73;100550.47;5002167;28;20086;-87
2023/03/04 11:57:53;;;;;;;29.13;14.88;;;;;;;15.29;57.48;100538.44;4999711;28;20053;-87
2023/03/04 12:00:49;;;;;;;30.20;15.73;;;;;;;14.96;59.64;100532.78;5002161;28;20034;-86
2023/03/04 12:03:50;;;;;;;32.75;15.77;;;;;;;15.85;55.56;100534.78;4979869;28;20030;-89
2023/03/04 12:06:51;;;;;;;26.25;14.40;;;;;;;16.54;52.90;100526.69;4988919;28;20050;-87
2023/03/04 12:09:22;;;;;;;27.65;12.68;;;;;;;16.27;50.09;100527.63;4988536;28;20108;-87
2023/03/04 12:12:00;;;;;;;24.25;12.57;;;;;;;17.42;46.79;100520.31;4991649;28;20468;-85
2023/03/04 12:14:45;;;;;;;25.27;15.60;;;;;;;19.13;45.60;100519.72;4973711;28;20077;-84
2023/03/04 12:17:38;;;;;;;31.00;16.23;;;;;;;19.65;43.13;100513.97;4994647;28;20070;-86
2023/03/04 12:20:37;;;;;;;26.13;15.82;;;;;;;20.58;41.24;100511.91;4964144;28;20121;-86
2023/03/04 12:23:11;;;;;;;27.88;15.70;;;;;;;19.81;42.57;100509.88;4984287;28;20034;-88
2023/03/04 12:25:56;;;;;;;24.83;15.57;;;;;;;17.93;45.57;100507.88;4979583;28;20026;-88
2023/03/04 12:28:46;;;;;;;29.00;15.45;;;;;;;16.22;52.90;100489.97;4979245;28;20030;-87
2023/03/04 12:31:33;;;;;;;29.98;14.77;;;;;;;15.33;53.88;100480.97;4967467;28;20086;-88
2023/03/04 12:34:32;;;;;;;27.70;15.15;;;;;;;15.23;55.63;100483.97;4986779;28;20035;-85
2023/03/04 12:37:15;;;;;;;42.97;24.90;;;;;;;15.38;54.01;100475.84;4977853;28;20042;-85
2023/03/04 12:40:10;;;;;;;35.55;17.35;;;;;;;15.14;55.78;100468.28;4980860;28;20041;-88
2023/03/04 12:42:53;;;;;;;29.95;14.55;;;;;;;15.18;56.06;100464.22;4969794;28;20121;-88
2023/03/04 12:45:26;;;;;;;30.05;16.10;;;;;;;14.59;59.47;100453.81;4994620;28;20066;-87
2023/03/04 12:48:23;;;;;;;28.27;14.65;;;;;;;14.64;58.52;100454.09;4979802;28;20038;-88
2023/03/04 12:51:16;;;;;;;30.10;15.77;;;;;;;14.50;60.33;100449.63;4961444;28;20119;-87
2023/03/04 12:54:08;;;;;;;38.60;15.27;;;;;;;14.55;60.27;100439.19;4980229;28;20066;-84
2023/03/04 12:56:36;;;;;;;29.50;14.95;;;;;;;14.76;57.50;100441.88;4986853;28;20022;-90
2023/03/04 12:59:06;;;;;;;33.88;15.05;;;;;;;14.74;58.90;100440.44;4999791;28;20046;-88
2023/03/04 13:01:41;;;;;;;30.05;14.88;;;;;;;14.88;57.67;100440.34;4983619;28;20038;-91
2023/03/04 13:04:21;;;;;;;29.05;13.55;;;;;;;14.86;56.96;100434.38;4986635;28;20034;-88
2023/03/04 13:06:54;;;;;;;30.35;14.23;;;;;;;14.52;58.30;100431.56;4984743;28;20108;-87
2023/03/04 13:09:28;;;;;;;30.35;15.00;;;;;;;14.54;58.30;100429.56;4985412;28;20508;-85
2023/03/04 13:12:04;;;;;;;29.50;14.82;;;;;;;14.92;57.60;100422.94;4985255;28;20041;-85
2023/03/04 13:14:33;;;;;;;28.65;15.68;;;;;;;15.11;56.23;100421.47;4993753;28;20042;-85
2023/03/04 13:17:01;;;;;;;25.52;14.30;;;;;;;14.69;55.64;100411.63;4978592;28;20039;-86
2023/03/04 13:19:56;;;;;;;32.80;15.20;;;;;;;14.81;55.21;100415.47;4961225;28;20038;-86
2023/03/04 13:22:56;;;;;;;31.83;15.20;;;;;;;15.04;55.19;100414.41;4978864;28;20031;-86
2023/03/04 13:26:05;;;;;;;25.63;14.38;;;;;;;15.02;54.63;100412.75;5001277;23;20043;-87
2023/03/04 13:28:38;;;;;;;26.50;14.60;;;;;;;14.70;55.91;100402.63;4947118;23;20077;-89
2023/03/04 13:31:14;;;;;;;33.60;16.50;;;;;;;14.56;55.75;100403.50;4961885;28;20035;-87
2023/03/04 13:33:45;;;;;;;29.23;15.38;;;;;;;14.62;55.34;100408.09;5002869;28;20038;-90
2023/03/04 13:36:50;;;;;;;29.33;14.48;;;;;;;14.77;54.70;100392.84;5013080;28;20066;-88
2023/03/04 13:39:15;;;;;;;32.13;14.43;;;;;;;14.85;55.55;100403.38;4968733;28;20034;-86
2023/03/04 13:41:50;;;;;;;29.55;15.25;;;;;;;14.62;55.30;100394.75;4990270;28;20026;-87
2023/03/04 13:44:54;;;;;;;34.80;15.80;;;;;;;14.54;56.69;100392.22;4968548;28;20043;-89
2023/03/04 13:47:41;;;;;;;27.63;13.82;;;;;;;14.45;56.48;100394.19;4989150;28;20035;-89
2023/03/04 13:50:28;;;;;;;30.58;14.05;;;;;;;14.55;56.59;100385.84;4976775;28;20110;-88
2023/03/04 13:53:00;;;;;;;27.70;14.75;;;;;;;14.30;56.28;100379.22;4994821;28;20042;-88
2023/03/04 13:55:32;;;;;;;;;;;;;;;14.11;55.54;100375.34;4993349;28;20117;-88
2023/03/04 13:57:57;;;;;;;31.70;14.82;;;;;;;13.99;56.37;100375.00;4999606;28;19926;-88
2023/03/04 14:00:28;;;;;;;26.52;13.90;;;;;;;14.23;56.80;100378.31;4988484;28;20073;-90
2023/03/04 14:02:54;;;;;;;23.80;13.50;;;;;;;14.13;57.25;100372.47;4978460;28;20046;-88
2023/03/04 14:05:20;;;;;;;27.23;14.00;;;;;;;14.31;56.64;100371.06;4979186;28;20038;-87
2023/03/04 14:07:46;;;;;;;30.27;15.10;;;;;;;14.43;56.12;100374.06;4992560;28;20035;-88
2023/03/04 14:10:15;;;;;;;26.85;14.48;;;;;;;14.35;55.29;100372.34;4992558;28;20050;-89
2023/03/04 14:12:48;;;;;;;29.20;14.15;;;;;;;14.58;55.25;100366.00;4997376;28;20039;-88
2023/03/04 14:15:29;;;;;;;30.55;16.02;;;;;;;14.54;55.28;100362.88;4997248;28;20061;-89
2023/03/04 14:18:01;;;;;;;28.27;14.13;;;;;;;14.60;55.83;100354.13;4993187;28;20043;-87
2023/03/04 14:20:36;;;;;;;26.45;13.07;;;;;;;14.80;55.75;100349.78;5012080;28;20041;-88
2023/03/04 14:23:24;;;;;;;28.08;13.88;;;;;;;15.10;54.33;100349.56;5010651;28;20054;-89
2023/03/04 14:26:02;;;;;;;28.40;14.10;;;;;;;15.06;54.67;100349.13;4994639;28;20062;-88
2023/03/04 14:28:28;;;;;;;31.08;13.38;;;;;;;14.83;55.26;100340.53;4976385;28;20039;-88
2023/03/04 14:30:56;;;;;;;24.08;13.25;;;;;;;15.10;54.06;100338.88;4995763;28;20041;-89
2023/03/04 14:33:28;;;;;;;25.77;14.32;;;;;;;15.14;52.79;100343.66;4991447;28;20061;-89
2023/03/04 14:35:59;;;;;;;29.05;14.02;;;;;;;15.14;52.80;100345.50;5001247;28;20041;-90
2023/03/04 14:38:36;;;;;;;32.73;14.73;;;;;;;15.11;52.82;100328.03;4979648;28;20048;-90
2023/03/04 14:41:16;;;;;;;24.52;13.50;;;;;;;14.93;53.04;100323.19;4964228;28;20045;-86
2023/03/04 14:44:40;;;;;;;29.88;13.10;;;;;;;15.02;52.89;100327.34;5013959;28;20027;-88
2023/03/04 14:47:16;;;;;;;26.40;14.02;;;;;;;14.79;54.64;100321.44;4908374;29;20111;-87
2023/03/04 14:49:43;;;;;;;25.42;12.85;;;;;;;15.13;53.98;100309.13;4940037;29;20048;-84
2023/03/04 14:52:33;;;;;;;31.05;15.43;;;;;;;14.55;54.18;100308.50;4935755;29;20040;-86
2023/03/04 14:55:18;;;;;;;29.08;14.30;;;;;;;14.72;58.16;100309.06;4930013;29;20156;-87
2023/03/04 14:57:56;;;;;;;32.50;14.75;;;;;;;14.59;55.32;100304.44;4991355;28;20039;-87
2023/03/04 15:00:32;;;;;;;33.97;13.57;;;;;;;14.47;56.36;100298.00;5005265;28;20030;-84
2023/03/04 15:56:58;;;;;;;27.50;12.50;;;;;;;14.37;57.94;100263.69;5741723;23;20600;-92
2023/03/04 15:59:24;;;;;;;34.03;12.80;;;;;;;14.19;56.61;100260.59;4957153;28;20127;-91
2023/03/04 16:01:50;;;;;;;28.77;12.88;;;;;;;14.14;57.50;100257.69;4975762;28;20070;-91
2023/03/04 16:04:16;;;;;;;28.08;13.73;;;;;;;14.24;58.78;100266.19;4974914;28;20043;-91
2023/03/04 16:06:47;;;;;;;25.08;12.48;;;;;;;14.46;61.10;100249.16;4975057;28;20063;-93
2023/03/04 16:09:16;;;;;;;26.35;13.48;;;;;;;14.65;60.77;100253.00;4974902;28;20046;-92
2023/03/04 16:11:46;;;;;;;31.00;12.80;;;;;;;14.69;58.71;100258.75;4974956;28;20102;-91
2023/03/04 16:14:13;;;;;;;30.95;14.02;;;;;;;14.39;56.54;100253.63;4961030;28;20482;-91
2023/03/04 16:16:39;;;;;;;29.98;12.43;;;;;;;14.51;59.78;100245.09;4979379;28;20031;-91
2023/03/04 16:19:05;;;;;;;31.08;14.35;;;;;;;14.42;57.37;100249.75;4977683;28;20113;-91
2023/03/04 16:21:31;;;;;;;28.02;13.48;;;;;;;14.05;nan;100252.69;4962049;28;20475;-91
2023/03/04 16:23:57;;;;;;;28.40;14.60;;;;;;;14.06;58.73;100255.16;4961005;28;20119;-90
2023/03/04 16:26:25;;;;;;;31.15;13.88;;;;;;;13.95;58.55;100247.69;4978518;28;20459;-90
2023/03/04 16:28:52;;;;;;;28.10;15.52;;;;;;;14.07;59.16;100250.66;4977757;28;20107;-91
2023/03/04 16:31:21;;;;;;;25.42;14.50;;;;;;;14.09;59.96;100238.78;4977105;28;20120;-91
2023/03/04 16:33:47;;;;;;;31.58;14.15;;;;;;;14.01;60.17;100244.25;4978534;28;20054;-91
2023/03/04 16:36:24;;;;;;;29.75;13.63;;;;;;;14.13;60.92;100252.53;4978774;28;20038;-90
2023/03/04 16:39:01;;;;;;;28.33;13.25;;;;;;;13.93;60.83;100247.03;4978174;28;20062;-91
2023/03/04 16:41:31;;;;;;;32.17;14.40;;;;;;;13.88;60.70;100246.78;4961317;28;20133;-92
2023/03/04 16:44:00;;;;;;;27.08;15.02;;;;;;;13.84;60.92;100238.34;4978500;28;20103;-91
2023/03/04 16:46:27;;;;;;;31.23;14.00;;;;;;;13.95;61.20;100237.81;4977614;28;20031;-91
2023/03/04 16:48:52;;;;;;;32.97;14.43;;;;;;;13.87;61.26;100240.63;4977521;28;20066;-90
2023/03/04 16:51:22;;;;;;;25.33;13.02;;;;;;;13.92;60.40;100240.88;4978653;28;20050;-91
2023/03/04 16:53:55;;;;;;;30.67;14.93;;;;;;;13.97;61.15;100235.00;4979377;28;20121;-90
2023/03/04 16:56:21;;;;;;;35.67;14.30;;;;;;;13.95;61.26;100243.16;4981390;28;20074;-91
2023/03/04 16:58:52;;;;;;;32.55;15.45;;;;;;;13.84;62.35;100237.53;4994962;28;20038;-92
2023/03/04 17:01:24;;;;;;;25.77;11.43;;;;;;;13.63;61.85;100238.31;4987203;28;20062;-91
2023/03/04 17:03:50;;;;;;;28.60;15.40;;;;;;;13.63;62.37;100238.31;4982740;28;20049;-91
2023/03/04 17:06:19;;;;;;;30.65;15.90;;;;;;;13.77;62.05;100245.44;4967086;28;20433;-91
2023/03/04 17:08:45;;;;;;;37.00;16.20;;;;;;;13.50;63.33;100240.84;4998091;28;20096;-88
2023/03/04 17:11:17;;;;;;;32.30;15.43;;;;;;;13.73;62.07;100236.19;4999199;28;20525;-92
2023/03/04 17:13:43;;;;;;;35.72;16.73;;;;;;;13.71;62.87;100224.91;4980027;28;20455;-89
2023/03/04 17:16:10;;;;;;;51.08;26.05;;;;;;;13.67;63.57;100233.44;4978994;28;20034;-90
2023/03/04 17:18:37;;;;;;;56.55;33.47;;;;;;;13.73;63.40;100241.50;4987077;28;20082;-91
2023/03/04 17:21:10;;;;;;;41.40;22.88;;;;;;;13.81;62.13;100236.06;4961243;28;20038;-92
2023/03/04 17:23:37;;;;;;;36.13;20.83;;;;;;;13.81;61.96;100236.06;4979278;28;20038;-91
2023/03/04 17:26:04;;;;;;;76.70;34.78;;;;;;;13.90;61.55;100245.59;4978409;28;20027;-90
2023/03/04 17:28:29;;;;;;;46.88;23.92;;;;;;;13.86;62.31;100240.81;4961195;28;20053;-88
2023/03/04 17:30:55;;;;;;;137.75;62.25;;;;;;;13.94;62.51;100246.84;4978569;28;20035;-89
2023/03/04 17:33:21;;;;;;;157.50;76.03;;;;;;;13.89;62.60;100243.94;4961924;28;20046;-89
2023/03/04 17:35:46;;;;;;;106.22;48.33;;;;;;;14.03;62.97;100247.53;4977833;28;20124;-91
2023/03/04 17:38:13;;;;;;;70.68;33.60;;;;;;;13.88;63.32;100236.97;4978178;28;20042;-90
2023/03/04 17:40:39;;;;;;;76.72;34.63;;;;;;;13.82;64.18;100239.56;4945185;28;20018;-91
2023/03/04 17:43:11;;;;;;;54.15;24.40;;;;;;;13.69;66.04;100242.91;4946088;28;20455;-91
2023/03/04 17:45:38;;;;;;;52.40;22.42;;;;;;;13.56;68.56;100242.75;4982244;28;20121;-92
2023/03/04 17:48:13;;;;;;;46.05;20.05;;;;;;;13.66;68.91;100242.44;4981681;28;20030;-90
2023/03/04 17:50:46;;;;;;;48.95;22.20;;;;;;;13.46;68.95;100242.22;4983497;28;20046;-88
2023/03/04 17:53:12;;;;;;;53.80;22.58;;;;;;;13.37;70.59;100238.03;4983524;28;20034;-88
2023/03/04 17:56:01;;;;;;;49.45;21.98;;;;;;;13.32;71.70;100243.09;4998010;28;20552;-88
2023/03/04 17:58:32;;;;;;;46.28;21.05;;;;;;;13.19;72.96;100240.28;4985997;28;20073;-88
2023/03/04 18:01:26;;;;;;;44.17;20.67;;;;;;;12.92;74.56;100239.91;4985916;28;20106;-92
2023/03/04 18:03:52;;;;;;;52.35;21.08;;;;;;;12.78;75.53;100248.72;4989590;28;21116;-85
2023/03/04 18:06:21;;;;;;;41.13;19.05;;;;;;;12.98;75.31;100242.81;4972346;28;20114;-91
2023/03/04 18:08:48;;;;;;;48.30;21.65;;;;;;;12.73;75.83;100252.91;4973659;28;20094;-89
2023/03/04 18:11:21;;;;;;;49.17;21.52;;;;;;;12.33;80.42;100243.50;4989308;28;20073;-92
2023/03/04 18:13:47;;;;;;;52.05;22.67;;;;;;;11.93;84.12;100248.13;4970521;28;20046;-93
2023/03/04 18:16:22;;;;;;;54.63;21.48;;;;;;;11.89;85.27;100246.88;5008020;28;20034;-91
2023/03/04 18:22:35;;;;;;;58.42;20.67;;;;;;;11.00;95.72;100241.19;5019197;28;20069;-92
2023/03/04 18:25:15;;;;;;;36.20;18.98;;;;;;;10.78;100.00;100241.91;5019212;28;20026;-92
2023/03/04 18:27:44;;;;;;;43.13;18.48;;;;;;;11.01;98.60;100239.34;5018278;28;20038;-90
2023/03/04 18:30:25;;;;;;;38.95;18.33;;;;;;;11.15;96.44;100246.59;5003174;28;20046;-89
2023/03/04 18:32:51;;;;;;;47.58;20.95;;;;;;;11.14;96.29;100237.81;4967136;28;20525;-91
2023/03/04 18:35:18;;;;;;;43.97;22.67;;;;;;;11.12;95.59;100241.63;4965585;28;20038;-90
2023/03/04 18:37:44;;;;;;;51.78;24.83;;;;;;;11.10;95.70;100243.63;5002066;28;20433;-91
2023/03/04 18:40:10;;;;;;;46.05;24.05;;;;;;;11.09;97.23;100241.97;4973782;28;20038;-93
2023/03/04 18:42:36;;;;;;;52.65;24.30;;;;;;;11.05;96.97;100244.16;4991858;28;20500;-91
2023/03/04 18:45:03;;;;;;;45.30;23.38;;;;;;;11.18;96.74;100244.41;5002988;28;20034;-91
2023/03/04 18:47:31;;;;;;;48.65;24.50;;;;;;;11.05;99.07;100240.66;5004698;28;20050;-89
2023/03/04 18:49:57;;;;;;;51.88;26.08;;;;;;;11.02;97.97;100244.50;5007832;28;20466;-89
2023/03/04 18:52:28;;;;;;;47.60;24.80;;;;;;;10.74;100.00;100249.38;4992738;28;20093;-94
2023/03/04 18:54:53;;;;;;;51.95;24.77;;;;;;;10.55;100.00;100244.44;5009188;28;20039;-91
2023/03/04 18:57:19;;;;;;;47.55;25.48;;;;;;;10.58;100.00;100243.28;4987966;28;20166;-91
2023/03/04 19:00:18;;;;;;;49.42;24.50;;;;;;;10.64;100.00;100247.94;5002259;28;20046;-90
2023/03/04 19:02:55;;;;;;;56.10;23.60;;;;;;;10.60;100.00;100247.44;5004228;28;20470;-91
2023/03/04 19:05:27;;;;;;;42.58;24.13;;;;;;;10.64;100.00;100243.44;4985282;28;20046;-92
2023/03/04 19:07:54;;;;;;;63.55;24.27;;;;;;;10.50;100.00;100246.78;5002447;28;20048;-87
2023/03/04 19:10:28;;;;;;;45.35;22.90;;;;;;;10.70;99.70;100236.66;4983581;28;20423;-89
2023/03/04 19:12:58;;;;;;;53.40;24.10;;;;;;;10.67;98.78;100243.09;5003738;28;20045;-92
2023/03/04 19:15:24;;;;;;;51.03;23.77;;;;;;;10.71;98.23;100236.47;4970216;28;20046;-91
2023/03/04 19:17:50;;;;;;;54.95;23.67;;;;;;;10.48;98.08;100238.16;4982777;28;20030;-91
2023/03/04 19:20:17;;;;;;;54.30;24.58;;;;;;;10.24;100.00;100246.16;4981638;28;20031;-92
2023/03/04 19:22:43;;;;;;;46.58;23.95;;;;;;;10.35;100.00;100253.75;4952015;28;20474;-91
2023/03/04 19:25:11;;;;;;;44.95;23.98;;;;;;;10.44;98.29;100247.44;4982335;28;20479;-91
2023/03/04 19:27:37;;;;;;;53.92;23.55;;;;;;;10.59;98.19;100242.28;4983360;28;20045;-90
2023/03/04 19:30:08;;;;;;;56.67;25.00;;;;;;;10.35;96.79;100248.47;4950906;28;20097;-91
2023/03/04 19:32:34;;;;;;;46.72;24.15;;;;;;;10.09;99.72;100255.72;4969118;28;20038;-92
2023/03/04 19:35:00;;;;;;;46.17;24.35;;;;;;;9.79;100.00;100257.19;4987185;28;20071;-92
2023/03/04 19:37:25;;;;;;;64.10;26.55;;;;;;;9.54;100.00;100261.63;5003094;28;20030;-90
2023/03/04 19:39:54;;;;;;;50.90;24.52;;;;;;;9.34;100.00;100250.50;4989756;28;20042;-91
2023/03/04 19:42:30;;;;;;;46.50;22.13;;;;;;;9.50;100.00;100259.44;4973464;28;20064;-89
2023/03/04 19:44:55;;;;;;;40.65;22.38;;;;;;;9.73;100.00;100256.03;5002552;28;20081;-90
2023/03/04 19:47:59;;;;;;;45.80;23.35;;;;;;;9.97;100.00;100270.28;4991196;28;20035;-89
2023/03/04 19:50:38;;;;;;;45.05;22.45;;;;;;;9.55;100.00;100265.06;4994375;28;20034;-87
2023/03/04 19:53:17;;;;;;;46.87;22.87;;;;;;;9.43;100.00;100267.19;4995437;28;20061;-88
2023/03/04 19:55:44;;;;;;;49.47;23.35;;;;;;;9.67;100.00;100272.56;5014873;28;20359;-89
2023/03/04 19:58:15;;;;;;;50.78;24.42;;;;;;;9.56;100.00;100270.22;4995905;28;20030;-92
2023/03/04 20:00:45;;;;;;;44.08;21.48;;;;;;;9.18;100.00;100262.81;4993451;28;20038;-91
2023/03/04 20:03:13;;;;;;;48.65;21.88;;;;;;;8.95;100.00;100267.03;4996433;28;20034;-89
2023/03/04 20:05:39;;;;;;;44.75;21.08;;;;;;;8.93;100.00;100274.25;5016991;28;20035;-91
2023/03/04 20:08:07;;;;;;;48.40;21.95;;;;;;;8.88;100.00;100266.00;5009800;28;20042;-91
2023/03/04 20:10:35;;;;;;;38.08;19.85;;;;;;;9.07;100.00;100266.56;4993520;28;20053;-90
2023/03/04 20:13:05;;;;;;;35.97;20.17;;;;;;;9.37;100.00;100267.84;5010802;28;20041;-91
2023/03/04 20:15:54;;;;;;;47.97;20.98;;;;;;;9.59;100.00;100279.63;4978084;28;20042;-92
2023/03/04 20:18:19;;;;;;;42.28;21.70;;;;;;;8.93;100.00;100280.38;4998216;28;20098;-91
2023/03/04 20:20:50;;;;;;;44.45;21.75;;;;;;;9.03;100.00;100274.97;4995379;28;20498;-92
2023/03/04 20:23:19;;;;;;;39.35;20.77;;;;;;;8.70;100.00;100280.09;5014383;28;20113;-92
2023/03/04 20:25:48;;;;;;;38.70;20.67;;;;;;;9.01;100.00;100274.31;4994214;28;20389;-91
2023/03/04 20:28:14;;;;;;;39.28;19.98;;;;;;;9.12;100.00;100274.00;5014731;28;20038;-91
2023/03/04 20:30:40;;;;;;;40.55;21.08;;;;;;;9.22;100.00;100272.06;5011433;28;20034;-90
2023/03/04 20:33:06;;;;;;;43.10;19.80;;;;;;;9.08;100.00;100276.16;4985196;28;20042;-89
2023/03/04 20:35:31;;;;;;;39.63;19.90;;;;;;;8.77;100.00;100275.00;4980615;28;20038;-87
2023/03/04 20:37:57;;;;;;;41.95;20.30;;;;;;;8.88;100.00;100272.09;4997132;28;20120;-88
2023/03/04 20:40:22;;;;;;;42.92;21.17;;;;;;;8.67;100.00;100274.28;4997381;28;20034;-90